Time;durP1;ratioP1;P1;durP2;ratioP2;P2;SDS_P1;SDS_P2;PMS_P1;PMS_P2;Temp;Humidity;BMP_temperature;BMP_pressure;BME280_temperature;BME280_humidity;BME280_pressure;Samples;Min_cycle;Max_cycle;Signal;HPM_P1;HPM_P2
2021/10/16 00:02:08;;;;;;;3.60;1.90;;;;;;;8.55;78.29;96808.05;115521;1199;33125;-88
2021/10/16 00:04:36;;;;;;;3.00;1.90;;;;;;;8.53;78.20;96810.47;115528;1199;27312;-88
2021/10/16 00:07:04;;;;;;;2.20;1.70;;;;;;;8.52;78.06;96815.48;115442;1198;30751;-88
2021/10/16 00:09:32;;;;;;;3.10;2.20;;;;;;;8.52;77.97;96816.45;115544;1193;26546;-87
2021/10/16 00:12:00;;;;;;;3.10;1.80;;;;;;;8.52;77.80;96817.81;115417;1197;26527;-87
2021/10/16 00:14:28;;;;;;;3.30;1.80;;;;;;;8.50;77.79;96815.66;115535;1199;27531;-88
2021/10/16 00:16:56;;;;;;;4.30;2.50;;;;;;;8.50;77.67;96811.05;115354;1198;26348;-88
2021/10/16 00:19:25;;;;;;;4.20;2.60;;;;;;;8.49;77.74;96814.38;115239;1199;26143;-87
2021/10/16 00:21:53;;;;;;;3.80;2.10;;;;;;;8.46;77.87;96817.12;115491;1199;29855;-88
2021/10/16 00:24:21;;;;;;;4.00;2.10;;;;;;;8.43;77.79;96817.95;115660;1198;26787;-89
2021/10/16 00:26:49;;;;;;;3.50;2.10;;;;;;;8.41;77.86;96815.35;115598;1198;25610;-88
2021/10/16 00:29:17;;;;;;;3.90;2.10;;;;;;;8.39;77.96;96823.00;115476;1199;58542;-88
2021/10/16 00:31:45;;;;;;;2.70;2.00;;;;;;;8.37;77.85;96821.36;115578;1198;28213;-89
2021/10/16 00:34:13;;;;;;;3.00;1.60;;;;;;;8.37;77.85;96817.92;115493;1199;27252;-88
2021/10/16 00:36:41;;;;;;;2.60;1.60;;;;;;;8.37;77.89;96816.34;115484;1198;62707;-88
2021/10/16 00:39:10;;;;;;;4.50;1.90;;;;;;;8.37;77.91;96823.89;115376;1193;60856;-89
2021/10/16 00:41:38;;;;;;;3.90;1.80;;;;;;;8.38;77.96;96824.48;115494;1199;27580;-89
2021/10/16 00:44:14;;;;;;;3.60;1.80;;;;;;;8.39;77.98;96826.75;115543;1198;27257;-88
2021/10/16 00:46:43;;;;;;;2.80;1.90;;;;;;;8.40;77.92;96826.59;115480;1198;28383;-88
2021/10/16 00:49:12;;;;;;;1.90;1.50;;;;;;;8.40;77.88;96827.65;115474;1198;28752;-88
2021/10/16 00:51:41;;;;;;;4.20;1.90;;;;;;;8.42;77.96;96827.39;115523;1198;26735;-88
2021/10/16 00:54:10;;;;;;;2.90;1.80;;;;;;;8.42;77.87;96832.36;115546;1193;27604;-87
2021/10/16 00:56:40;;;;;;;4.50;2.00;;;;;;;8.44;77.99;96829.25;115323;1193;24857;-88
2021/10/16 00:59:09;;;;;;;6.30;2.40;;;;;;;8.46;77.97;96829.23;115305;1199;29820;-88
2021/10/16 01:01:39;;;;;;;4.90;2.50;;;;;;;8.48;77.84;96822.14;115529;1199;39201;-88
2021/10/16 01:04:07;;;;;;;4.40;2.40;;;;;;;8.46;77.84;96822.45;115430;1197;27526;-87
2021/10/16 01:06:37;;;;;;;3.80;2.50;;;;;;;8.43;77.97;96826.02;115484;1199;28980;-89
2021/10/16 01:09:08;;;;;;;3.40;2.80;;;;;;;8.39;78.04;96827.07;115468;1199;34036;-87
2021/10/16 01:11:36;;;;;;;;;;;;;;;8.39;77.97;96824.38;115291;1199;26206;-88
2021/10/16 01:14:07;;;;;;;5.50;2.60;;;;;;;8.39;78.38;96830.19;115350;1193;78664;-88
2021/10/16 01:16:34;;;;;;;;;;;;;;;8.35;78.40;96834.19;115212;1199;27191;-89
2021/10/16 01:19:06;;;;;;;4.80;2.90;;;;;;;8.33;78.65;96837.76;115519;1199;27664;-88
2021/10/16 01:21:36;;;;;;;4.60;3.00;;;;;;;8.32;78.81;96839.54;115458;1199;63432;-88
2021/10/16 01:24:06;;;;;;;5.60;2.80;;;;;;;8.31;78.77;96837.52;115592;1198;28010;-89
2021/10/16 01:26:38;;;;;;;4.30;2.70;;;;;;;8.28;78.95;96834.34;115558;1193;30359;-87
2021/10/16 01:29:07;;;;;;;5.70;3.00;;;;;;;8.27;79.09;96837.13;115641;1195;29882;-88
2021/10/16 01:31:37;;;;;;;4.20;3.10;;;;;;;8.26;79.17;96839.61;115554;1198;32151;-87
2021/10/16 01:34:05;;;;;;;3.80;2.60;;;;;;;8.26;79.19;96843.95;115626;1199;28891;-88
2021/10/16 01:36:45;;;;;;;4.50;2.60;;;;;;;8.27;79.16;96839.72;115483;1199;30653;-90
2021/10/16 01:39:14;;;;;;;3.50;2.50;;;;;;;8.30;79.25;96842.16;115361;1198;29631;-88
2021/10/16 01:41:42;;;;;;;2.70;2.20;;;;;;;8.31;79.23;96843.14;115484;1198;31316;-88
2021/10/16 01:44:11;;;;;;;4.50;2.80;;;;;;;8.35;79.31;96843.29;115181;1193;31133;-86
2021/10/16 01:46:39;;;;;;;4.00;2.80;;;;;;;8.30;79.25;96844.34;115424;1199;28364;-88
2021/10/16 01:49:12;;;;;;;5.40;3.10;;;;;;;8.26;79.32;96846.48;115503;1199;27796;-88
2021/10/16 01:51:43;;;;;;;4.60;2.70;;;;;;;8.23;79.40;96841.88;115547;1198;27160;-88
2021/10/16 01:54:11;;;;;;;4.70;2.90;;;;;;;8.22;79.40;96843.66;115327;1199;29103;-88
2021/10/16 01:56:40;;;;;;;5.30;2.90;;;;;;;8.22;79.16;96840.66;115394;1199;32446;-88
2021/10/16 01:59:17;;;;;;;3.60;2.80;;;;;;;8.23;79.29;96843.72;115333;1199;30775;-87
2021/10/16 02:01:45;;;;;;;5.00;2.90;;;;;;;8.19;79.23;96843.76;115411;1199;27242;-88
2021/10/16 02:04:15;;;;;;;4.50;3.30;;;;;;;8.16;79.07;96844.84;115536;1198;25648;-88
2021/10/16 02:06:43;;;;;;;4.60;2.80;;;;;;;8.12;79.20;96848.35;115553;1198;30032;-89
2021/10/16 02:09:11;;;;;;;4.00;2.90;;;;;;;8.10;79.39;96846.23;115199;1200;28065;-87
2021/10/16 02:11:40;;;;;;;4.80;3.30;;;;;;;8.08;79.55;96847.87;115502;1198;50599;-88
2021/10/16 02:14:10;;;;;;;5.90;3.30;;;;;;;8.08;79.73;96851.25;115586;1198;27525;-90
2021/10/16 02:16:38;;;;;;;5.10;3.20;;;;;;;8.08;79.86;96850.66;115441;1184;26581;-88
2021/10/16 02:19:06;;;;;;;4.80;2.90;;;;;;;8.04;79.71;96851.86;115442;1198;25935;-87
2021/10/16 02:21:34;;;;;;;4.10;2.50;;;;;;;8.02;79.68;96858.19;115482;1199;48668;-88
2021/10/16 02:24:02;;;;;;;6.20;3.20;;;;;;;8.04;79.64;96860.33;115481;1199;30928;-88
2021/10/16 02:26:30;;;;;;;7.00;2.80;;;;;;;8.05;79.56;96867.45;115422;1199;25723;-89
2021/10/16 02:28:58;;;;;;;5.60;3.20;;;;;;;8.08;79.53;96866.46;115430;1192;25598;-88
2021/10/16 02:31:26;;;;;;;4.30;3.00;;;;;;;8.07;79.49;96867.83;115445;1199;37727;-88
2021/10/16 02:33:54;;;;;;;5.20;3.10;;;;;;;8.07;79.63;96870.84;115170;1200;32024;-88
2021/10/16 02:36:23;;;;;;;4.90;3.10;;;;;;;8.05;79.74;96869.09;115505;1198;29217;-86
2021/10/16 02:38:51;;;;;;;4.80;3.20;;;;;;;8.01;79.66;96867.40;115636;1199;25345;-88
2021/10/16 02:41:19;;;;;;;4.80;3.70;;;;;;;7.97;79.88;96872.93;115502;1199;197800;-87
2021/10/16 02:43:47;;;;;;;6.10;3.50;;;;;;;7.93;80.03;96873.70;115570;1198;27709;-89
2021/10/16 02:46:15;;;;;;;4.20;3.10;;;;;;;7.92;80.14;96874.33;115470;1198;28684;-88
2021/10/16 02:48:43;;;;;;;5.30;3.70;;;;;;;7.92;80.30;96867.16;115486;1199;82904;-87
2021/10/16 02:51:10;;;;;;;7.70;4.20;;;;;;;7.87;80.32;96870.23;115573;1198;34871;-87
2021/10/16 02:53:38;;;;;;;7.20;3.80;;;;;;;7.83;80.42;96870.77;115525;1192;26982;-88
2021/10/16 02:56:06;;;;;;;6.90;4.00;;;;;;;7.81;80.96;96870.98;115450;1199;29723;-88
2021/10/16 02:58:34;;;;;;;5.90;3.80;;;;;;;7.79;81.16;96877.47;115448;1199;34346;-88
2021/10/16 03:01:02;;;;;;;4.40;4.00;;;;;;;7.76;81.28;96877.13;115438;1199;28101;-88
2021/10/16 03:03:31;;;;;;;5.20;4.30;;;;;;;7.72;81.22;96879.83;115374;1199;36248;-88
2021/10/16 03:05:59;;;;;;;5.20;3.50;;;;;;;7.71;81.30;96882.94;115479;1192;27476;-88
2021/10/16 03:08:27;;;;;;;6.10;3.80;;;;;;;7.70;81.35;96884.46;115431;1199;29839;-89
2021/10/16 03:10:55;;;;;;;3.60;3.00;;;;;;;7.67;81.40;96885.98;115575;1198;49466;-88
2021/10/16 03:13:23;;;;;;;5.00;3.50;;;;;;;7.65;81.63;96886.96;115493;1198;24865;-89
2021/10/16 03:15:50;;;;;;;6.30;3.60;;;;;;;7.63;81.71;96887.96;115493;1199;26370;-88
2021/10/16 03:18:18;;;;;;;5.80;3.70;;;;;;;7.65;81.75;96887.18;115560;1199;55388;-88
2021/10/16 03:20:46;;;;;;;4.70;3.10;;;;;;;7.64;81.55;96897.47;115490;1198;30300;-88
2021/10/16 03:23:14;;;;;;;4.30;3.10;;;;;;;7.64;81.51;96897.30;115636;1199;30619;-88
2021/10/16 03:25:42;;;;;;;4.50;3.00;;;;;;;7.61;81.16;96899.87;115425;1199;27956;-88
2021/10/16 03:28:11;;;;;;;3.80;2.80;;;;;;;7.57;80.81;96899.34;115401;1198;27027;-88
2021/10/16 03:30:39;;;;;;;6.50;3.30;;;;;;;7.57;80.66;96905.78;115525;1198;28259;-88
2021/10/16 03:33:07;;;;;;;4.20;2.70;;;;;;;7.54;80.60;96903.66;115279;1199;128730;-90
2021/10/16 03:35:36;;;;;;;3.40;2.20;;;;;;;7.50;80.25;96904.42;115368;1199;28581;-89
2021/10/16 03:38:04;;;;;;;5.00;2.30;;;;;;;7.49;80.17;96903.77;115477;1199;26325;-89
2021/10/16 03:40:32;;;;;;;6.00;2.40;;;;;;;7.46;79.99;96902.70;115514;1198;27855;-89
2021/10/16 03:43:00;;;;;;;5.90;3.00;;;;;;;7.45;80.12;96911.59;115170;1200;30123;-89
2021/10/16 03:45:28;;;;;;;3.30;1.80;;;;;;;7.42;80.14;96913.36;115553;1199;28374;-89
2021/10/16 03:47:57;;;;;;;3.80;1.90;;;;;;;7.42;79.93;96913.20;115493;1198;70823;-89
2021/10/16 03:50:25;;;;;;;4.60;2.30;;;;;;;7.45;79.79;96917.17;115464;1199;28405;-89
2021/10/16 03:52:53;;;;;;;3.10;2.40;;;;;;;7.49;79.54;96917.23;115435;1199;29636;-89
2021/10/16 03:55:21;;;;;;;5.40;2.60;;;;;;;7.51;79.58;96922.41;115476;1176;27825;-86
2021/10/16 03:57:50;;;;;;;4.50;2.10;;;;;;;7.52;79.54;96923.38;115534;1198;26058;-88
2021/10/16 04:00:19;;;;;;;3.50;2.20;;;;;;;7.56;79.57;96928.15;115402;1199;43057;-87
2021/10/16 04:02:50;;;;;;;4.60;2.50;;;;;;;7.59;79.73;96925.65;115385;1199;27936;-88
2021/10/16 04:05:19;;;;;;;3.50;2.60;;;;;;;7.55;79.72;96926.81;115453;1198;28927;-87
2021/10/16 04:07:47;;;;;;;2.80;2.30;;;;;;;7.46;79.71;96924.78;115376;1199;26559;-88
2021/10/16 04:10:15;;;;;;;4.70;2.50;;;;;;;7.41;79.86;96926.80;115439;1198;27804;-88
2021/10/16 04:12:43;;;;;;;4.40;2.20;;;;;;;7.38;80.17;96925.52;115517;1199;25687;-88
2021/10/16 04:15:11;;;;;;;4.20;2.60;;;;;;;7.32;80.15;96924.45;115487;1199;26801;-88
2021/10/16 04:17:39;;;;;;;3.90;2.20;;;;;;;7.27;80.18;96923.61;115427;1199;28873;-89
2021/10/16 04:20:09;;;;;;;3.70;2.10;;;;;;;7.28;80.03;96921.77;115407;1193;24984;-88
2021/10/16 04:22:37;;;;;;;4.40;2.30;;;;;;;7.30;80.03;96923.89;115312;1198;78691;-88
2021/10/16 04:25:08;;;;;;;5.30;3.20;;;;;;;7.33;80.01;96927.11;115623;1198;28205;-88
2021/10/16 04:27:37;;;;;;;6.40;4.20;;;;;;;7.34;80.00;96925.28;115496;1198;27389;-90
2021/10/16 04:30:06;;;;;;;7.20;5.80;;;;;;;7.33;79.97;96925.27;115340;1199;142149;-89
2021/10/16 04:32:35;;;;;;;3.30;2.90;;;;;;;7.33;80.08;96932.29;115597;1184;30112;-89
2021/10/16 04:35:06;;;;;;;3.50;2.70;;;;;;;7.32;80.06;96929.35;115473;1198;27655;-89
2021/10/16 04:37:34;;;;;;;7.00;2.40;;;;;;;7.25;79.91;96932.14;115531;1193;25343;-89
2021/10/16 04:40:10;;;;;;;4.80;2.80;;;;;;;7.21;79.69;96931.63;115451;1198;27614;-89
2021/10/16 04:42:39;;;;;;;4.70;2.40;;;;;;;7.16;79.79;96927.45;115464;1199;26867;-88
2021/10/16 04:45:10;;;;;;;5.50;2.30;;;;;;;7.12;79.64;96933.01;115425;1199;32413;-89
2021/10/16 04:47:38;;;;;;;9.10;6.00;;;;;;;7.07;79.86;96936.29;115414;1199;27274;-88
2021/10/16 04:50:07;;;;;;;45.50;20.60;;;;;;;7.01;79.82;96940.63;115412;1194;25181;-88
2021/10/16 04:52:35;;;;;;;37.80;21.80;;;;;;;6.97;79.82;96940.11;115419;1199;33202;-88
2021/10/16 04:55:05;;;;;;;19.00;10.00;;;;;;;6.94;79.90;96944.52;115430;1199;30446;-87
2021/10/16 04:57:34;;;;;;;13.10;6.80;;;;;;;6.91;79.78;96944.39;115469;1199;31026;-88
2021/10/16 05:00:06;;;;;;;5.30;3.30;;;;;;;6.89;79.87;96947.18;115448;1192;120131;-88
2021/10/16 05:02:34;;;;;;;4.90;2.60;;;;;;;6.86;79.91;96949.16;115192;1200;28137;-88
2021/10/16 05:05:03;;;;;;;5.20;2.70;;;;;;;6.81;80.01;96951.00;115445;1199;37138;-88
2021/10/16 05:07:31;;;;;;;5.60;2.70;;;;;;;6.77;79.96;96955.65;115417;1198;35280;-88
2021/10/16 05:09:59;;;;;;;4.30;2.70;;;;;;;6.73;80.04;96960.23;115542;1198;28390;-88
2021/10/16 05:12:29;;;;;;;7.20;3.60;;;;;;;6.68;80.04;96962.44;115100;1200;61819;-88
2021/10/16 05:14:57;;;;;;;17.20;12.80;;;;;;;6.66;80.19;96962.63;115176;1199;128162;-89
2021/10/16 05:17:25;;;;;;;5.70;4.00;;;;;;;6.62;80.28;96964.41;115524;1198;30621;-88
2021/10/16 05:19:53;;;;;;;3.70;2.80;;;;;;;6.57;80.28;96970.81;115332;1199;28398;-88
2021/10/16 05:22:21;;;;;;;5.50;2.90;;;;;;;6.49;80.13;96971.57;115445;1199;25402;-88
2021/10/16 05:24:49;;;;;;;5.80;1.70;;;;;;;6.42;80.42;96969.94;115482;1198;42830;-87
2021/10/16 05:27:17;;;;;;;10.90;4.70;;;;;;;6.41;80.56;96973.86;115428;1198;27403;-88
2021/10/16 05:29:47;;;;;;;15.50;6.80;;;;;;;6.41;80.64;96978.23;115370;1199;48272;-88
2021/10/16 05:32:15;;;;;;;21.80;9.40;;;;;;;6.36;80.48;96978.29;115415;1198;170913;-87
2021/10/16 05:34:43;;;;;;;11.50;5.60;;;;;;;6.34;80.86;96979.33;115463;1199;26324;-88
2021/10/16 05:37:12;;;;;;;13.20;5.20;;;;;;;6.34;80.91;96980.63;115489;1199;29824;-89
2021/10/16 05:39:40;;;;;;;6.20;2.80;;;;;;;6.33;81.20;96982.69;115181;1199;29092;-90
2021/10/16 05:42:08;;;;;;;5.80;3.40;;;;;;;6.36;81.37;96991.34;115515;1198;28565;-89
2021/10/16 05:44:36;;;;;;;4.90;2.60;;;;;;;6.44;81.35;96995.20;115605;1192;29874;-88
2021/10/16 05:47:07;;;;;;;3.40;2.20;;;;;;;6.83;81.42;96995.14;115360;1199;27759;-89
2021/10/16 05:49:34;;;;;;;;;;;;;;;7.13;80.58;97002.30;115413;1199;29079;-89
2021/10/16 05:52:05;;;;;;;3.60;2.10;;;;;;;7.10;80.23;97005.44;113948;1193;1812097;-88
2021/10/16 05:54:34;;;;;;;;;;;;;;;7.06;80.12;97009.45;110636;1198;2999815;-89
2021/10/16 05:57:04;;;;;;;4.50;2.10;;;;;;;7.04;80.05;97014.01;115081;1200;28290;-88
2021/10/16 05:59:33;;;;;;;7.50;2.10;;;;;;;7.00;80.21;97017.70;115484;1199;26504;-88
2021/10/16 06:02:01;;;;;;;7.70;3.40;;;;;;;6.98;80.24;97018.98;115470;1198;26943;-88
2021/10/16 06:04:29;;;;;;;7.80;2.90;;;;;;;6.96;80.36;97017.86;115556;1198;28966;-88
2021/10/16 06:06:57;;;;;;;5.40;2.80;;;;;;;6.95;80.56;97015.90;115312;1199;36544;-87
2021/10/16 06:09:25;;;;;;;5.40;2.60;;;;;;;6.97;80.69;97017.93;115370;1194;25045;-88
2021/10/16 06:11:53;;;;;;;3.40;1.90;;;;;;;7.11;80.66;97020.36;115463;1193;28093;-87
2021/10/16 06:14:21;;;;;;;5.70;2.20;;;;;;;7.14;80.40;97026.09;115566;1199;26743;-87
2021/10/16 06:16:50;;;;;;;4.60;2.70;;;;;;;7.10;80.35;97024.20;115625;1193;28756;-87
2021/10/16 06:19:19;;;;;;;6.80;3.00;;;;;;;7.12;80.46;97033.77;115624;1196;25898;-87
2021/10/16 06:21:47;;;;;;;5.60;3.10;;;;;;;7.14;80.36;97031.69;115527;1198;29606;-89
2021/10/16 06:24:17;;;;;;;4.10;2.70;;;;;;;7.16;80.35;97033.48;115340;1198;37639;-88
2021/10/16 06:26:45;;;;;;;8.50;2.80;;;;;;;7.21;80.17;97036.09;115395;1199;24942;-88
2021/10/16 06:29:13;;;;;;;4.00;2.50;;;;;;;7.28;79.94;97038.77;115297;1199;28044;-88
2021/10/16 06:31:41;;;;;;;6.40;2.90;;;;;;;7.39;79.95;97043.64;115536;1198;28600;-88
2021/10/16 06:34:10;;;;;;;6.60;2.80;;;;;;;7.52;79.68;97050.63;115480;1198;31603;-88
2021/10/16 06:36:40;;;;;;;6.80;2.50;;;;;;;7.75;79.93;97053.66;115500;1199;31143;-89
2021/10/16 06:39:08;;;;;;;;;;;;;;;8.01;79.66;97052.44;115556;1193;29375;-85
2021/10/16 06:41:37;;;;;;;5.60;2.30;;;;;;;8.72;80.21;97051.17;115569;1198;28231;-88
2021/10/16 06:44:06;;;;;;;7.40;2.40;;;;;;;10.47;79.95;97058.39;115582;1199;29918;-86
2021/10/16 06:46:34;;;;;;;3.10;1.80;;;;;;;11.64;77.22;97052.67;115595;1198;30745;-89
2021/10/16 06:49:03;;;;;;;5.90;2.40;;;;;;;11.99;74.60;97051.39;115562;1198;30145;-88
2021/10/16 06:51:31;;;;;;;5.30;2.20;;;;;;;12.55;74.25;97051.80;115438;1199;32667;-86
2021/10/16 06:54:02;;;;;;;4.20;2.10;;;;;;;12.65;71.88;97056.51;115518;1192;29735;-88
2021/10/16 06:56:30;;;;;;;5.40;2.20;;;;;;;12.88;71.84;97057.66;115512;1192;31716;-87
2021/10/16 06:58:59;;;;;;;4.50;2.10;;;;;;;14.19;71.26;97057.17;115569;1184;25232;-87
2021/10/16 07:01:27;;;;;;;5.30;2.30;;;;;;;15.11;69.27;97060.44;115542;1198;27651;-85
2021/10/16 07:03:56;;;;;;;6.20;2.00;;;;;;;14.94;66.14;97065.83;115346;1193;32622;-87
2021/10/16 07:06:24;;;;;;;5.40;2.20;;;;;;;13.99;65.26;97061.46;115283;1192;32082;-84
2021/10/16 07:08:52;;;;;;;6.50;2.50;;;;;;;13.35;65.39;97062.26;115423;1193;32489;-87
2021/10/16 07:11:20;;;;;;;5.30;2.40;;;;;;;13.42;66.45;97058.98;115465;1184;27479;-85
2021/10/16 07:13:48;;;;;;;7.70;2.50;;;;;;;13.11;65.44;97061.91;115266;1193;27222;-88
2021/10/16 07:16:16;;;;;;;4.30;2.20;;;;;;;12.42;63.59;97059.78;115417;1198;27055;-87
2021/10/16 07:18:44;;;;;;;4.40;2.70;;;;;;;11.90;64.52;97064.46;115390;1199;33927;-87
2021/10/16 07:21:12;;;;;;;6.00;2.70;;;;;;;11.58;65.68;97064.60;115341;1199;29394;-86
2021/10/16 07:23:41;;;;;;;4.90;2.50;;;;;;;11.88;67.03;97069.77;115384;1198;27963;-86
2021/10/16 07:26:09;;;;;;;6.70;2.50;;;;;;;12.34;66.45;97067.60;115389;1199;26760;-87
2021/10/16 07:28:37;;;;;;;7.10;2.70;;;;;;;12.66;66.93;97066.17;115340;1198;45609;-87
2021/10/16 07:31:05;;;;;;;7.90;2.70;;;;;;;13.51;66.91;97066.26;115495;1199;31151;-87
2021/10/16 07:33:35;;;;;;;5.20;2.50;;;;;;;13.96;64.66;97064.29;115525;1198;28528;-87
2021/10/16 07:36:03;;;;;;;5.10;2.10;;;;;;;13.12;61.35;97064.65;115187;1199;28901;-86
2021/10/16 07:38:32;;;;;;;4.40;2.20;;;;;;;12.28;61.90;97067.60;115212;1199;28043;-87
2021/10/16 07:41:00;;;;;;;4.60;1.80;;;;;;;12.35;63.03;97068.04;115412;1198;27650;-88
2021/10/16 07:43:28;;;;;;;6.50;2.40;;;;;;;12.74;62.84;97063.77;115529;1187;27322;-87
2021/10/16 07:45:56;;;;;;;5.20;2.30;;;;;;;12.89;61.83;97066.66;115086;1200;27289;-87
2021/10/16 07:48:24;;;;;;;6.40;2.50;;;;;;;12.99;62.17;97067.89;115443;1193;33003;-87
2021/10/16 07:50:53;;;;;;;6.90;2.50;;;;;;;13.16;61.23;97066.44;115529;1192;43405;-88
2021/10/16 07:53:22;;;;;;;6.10;2.60;;;;;;;13.08;60.96;97064.60;115609;1198;30063;-86
2021/10/16 07:55:49;;;;;;;4.20;2.20;;;;;;;13.27;61.33;97068.48;115678;1198;26437;-88
2021/10/16 07:58:19;;;;;;;5.00;2.20;;;;;;;13.54;60.59;97070.33;115461;1198;61757;-85
2021/10/16 08:00:48;;;;;;;5.40;2.30;;;;;;;13.49;59.59;97072.31;115488;1192;45505;-86
2021/10/16 08:03:16;;;;;;;3.60;2.00;;;;;;;13.44;59.92;97075.77;115436;1193;37748;-87
2021/10/16 08:05:44;;;;;;;5.70;2.30;;;;;;;13.53;58.86;97077.39;115569;1198;25893;-86
2021/10/16 08:08:12;;;;;;;4.10;2.20;;;;;;;13.27;57.89;97079.11;115400;1193;33891;-87
2021/10/16 08:10:41;;;;;;;6.50;2.30;;;;;;;12.98;57.70;97083.55;115423;1199;26051;-88
2021/10/16 08:13:10;;;;;;;6.40;2.30;;;;;;;12.88;58.23;97085.61;115446;1199;27976;-87
2021/10/16 08:15:39;;;;;;;5.40;2.30;;;;;;;12.93;58.27;97083.58;115303;1199;46324;-86
2021/10/16 08:18:07;;;;;;;3.50;1.90;;;;;;;12.87;57.05;97083.11;115349;1199;29497;-87
2021/10/16 08:20:38;;;;;;;5.00;2.40;;;;;;;12.58;57.08;97084.01;115328;1199;28138;-87
2021/10/16 08:23:08;;;;;;;7.00;2.30;;;;;;;12.42;57.35;97090.52;115365;1193;40881;-87
2021/10/16 08:25:36;;;;;;;8.50;2.60;;;;;;;12.37;57.67;97092.05;115421;1199;27056;-86
2021/10/16 08:28:09;;;;;;;5.80;2.50;;;;;;;12.46;58.29;97091.55;115470;1191;26324;-87
2021/10/16 08:30:39;;;;;;;4.40;2.20;;;;;;;12.25;57.21;97096.86;115439;1198;25753;-86
2021/10/16 08:33:08;;;;;;;3.20;1.90;;;;;;;11.76;57.80;97094.44;115429;1198;40968;-87
2021/10/16 08:35:36;;;;;;;5.70;2.60;;;;;;;11.60;58.39;97095.23;115441;1198;27737;-87
2021/10/16 08:38:04;;;;;;;5.40;2.30;;;;;;;11.65;58.85;97098.72;115539;1192;27920;-86
2021/10/16 08:40:34;;;;;;;6.50;2.00;;;;;;;11.80;59.10;97098.35;115516;1198;29614;-87
2021/10/16 08:43:03;;;;;;;7.90;2.50;;;;;;;11.80;58.41;97094.31;115452;1198;32068;-86
2021/10/16 08:45:33;;;;;;;5.10;2.60;;;;;;;11.59;58.39;97092.95;115409;1199;27751;-86
2021/10/16 08:48:03;;;;;;;5.10;2.50;;;;;;;11.26;58.63;97099.23;115445;1199;27338;-87
2021/10/16 08:50:33;;;;;;;6.00;2.80;;;;;;;11.10;59.46;97104.84;115403;1198;29141;-86
2021/10/16 08:53:01;;;;;;;5.90;2.50;;;;;;;11.03;59.12;97105.14;115399;1199;29749;-85
2021/10/16 08:55:30;;;;;;;4.00;2.40;;;;;;;10.85;58.69;97103.62;115368;1199;27575;-85
2021/10/16 08:58:00;;;;;;;11.00;2.80;;;;;;;10.66;58.47;97105.08;115384;1193;27290;-86
2021/10/16 09:00:52;;;;;;;6.10;2.90;;;;;;;10.44;58.81;97110.16;115365;1199;25798;-86
2021/10/16 09:03:24;;;;;;;6.50;2.60;;;;;;;10.59;59.87;97104.39;115507;1199;28150;-87
2021/10/16 09:06:07;;;;;;;6.70;3.20;;;;;;;10.96;59.81;97109.96;115456;1196;67794;-87
2021/10/16 09:08:38;;;;;;;10.10;3.20;;;;;;;11.26;59.57;97110.17;115371;1193;41625;-87
2021/10/16 09:11:32;;;;;;;6.10;3.10;;;;;;;11.18;58.80;97107.12;115453;1199;42978;-85
2021/10/16 09:14:07;;;;;;;5.70;3.00;;;;;;;10.91;59.21;97109.29;111471;1196;2460409;-86
2021/10/16 09:16:38;;;;;;;6.00;4.10;;;;;;;10.67;59.26;97113.14;115527;1184;39201;-86
2021/10/16 09:19:11;;;;;;;7.20;3.00;;;;;;;10.51;59.92;97115.62;116645;1199;56759;-86
2021/10/16 09:21:41;;;;;;;5.50;2.40;;;;;;;10.48;60.21;97122.57;116629;1197;35277;-84
2021/10/16 09:24:30;;;;;;;6.80;3.20;;;;;;;10.42;59.79;97124.70;116414;1200;42692;-85
2021/10/16 09:27:00;;;;;;;5.80;2.90;;;;;;;10.40;60.09;97122.66;116495;1199;33027;-85
2021/10/16 09:29:31;;;;;;;5.90;2.70;;;;;;;10.40;59.85;97120.97;116721;1198;29361;-84
2021/10/16 09:32:00;;;;;;;11.20;3.40;;;;;;;10.33;60.00;97123.41;116739;1198;28469;-84
2021/10/16 09:34:30;;;;;;;5.90;3.20;;;;;;;10.25;60.09;97126.63;116598;1199;44471;-86
2021/10/16 09:37:05;;;;;;;7.40;3.20;;;;;;;10.31;60.63;97127.17;116655;1198;51837;-86
2021/10/16 09:39:34;;;;;;;6.80;3.40;;;;;;;10.38;60.56;97127.48;116599;1198;61139;-87
2021/10/16 09:42:03;;;;;;;6.40;3.10;;;;;;;10.71;61.75;97123.63;116616;1199;45766;-87
2021/10/16 09:44:33;;;;;;;7.10;3.50;;;;;;;10.97;60.26;97123.77;116647;1198;50002;-86
2021/10/16 09:47:05;;;;;;;7.60;3.50;;;;;;;11.11;59.83;97117.16;116739;1198;40833;-88
2021/10/16 09:49:38;;;;;;;6.30;3.80;;;;;;;11.27;60.48;97124.45;116708;1198;36000;-89
2021/10/16 09:52:08;;;;;;;9.40;4.60;;;;;;;11.37;60.03;97119.96;114520;1198;2584073;-86
2021/10/16 09:54:36;;;;;;;8.40;3.50;;;;;;;11.28;60.59;97123.19;116637;1198;31841;-85
2021/10/16 09:57:07;;;;;;;6.20;4.10;;;;;;;11.35;61.09;97124.53;116290;1198;35524;-86
2021/10/16 09:59:37;;;;;;;8.40;4.60;;;;;;;11.45;60.92;97123.87;116689;1198;31376;-87
2021/10/16 10:02:07;;;;;;;7.50;3.70;;;;;;;11.40;60.25;97124.79;116661;1199;32019;-84
2021/10/16 10:04:39;;;;;;;8.30;3.80;;;;;;;11.18;59.84;97123.30;116698;1199;31789;-88
2021/10/16 10:07:08;;;;;;;9.00;4.20;;;;;;;10.94;59.89;97121.64;116631;1192;41453;-86
2021/10/16 10:09:45;;;;;;;9.40;4.00;;;;;;;10.84;59.91;97125.32;116691;1192;35550;-86
2021/10/16 10:12:15;;;;;;;7.90;3.60;;;;;;;10.77;59.85;97122.67;116567;1198;86519;-86
2021/10/16 10:14:46;;;;;;;9.20;4.00;;;;;;;10.62;59.17;97121.61;116629;1198;30771;-88
2021/10/16 10:17:18;;;;;;;8.80;4.50;;;;;;;10.47;59.93;97123.64;116712;1199;29670;-85
2021/10/16 10:19:52;;;;;;;9.20;4.20;;;;;;;10.63;60.75;97120.82;115568;1198;27350;-85
2021/10/16 10:22:22;;;;;;;8.70;3.70;;;;;;;10.85;60.45;97114.77;115546;1198;36821;-88
2021/10/16 10:24:58;;;;;;;7.60;4.20;;;;;;;10.82;59.98;97122.71;115493;1192;58161;-84
2021/10/16 10:27:27;;;;;;;10.50;4.60;;;;;;;10.78;59.77;97123.52;114765;1192;653817;-86
2021/10/16 10:29:56;;;;;;;6.10;3.90;;;;;;;10.68;59.47;97118.86;115367;1192;26487;-86
2021/10/16 10:32:27;;;;;;;7.70;4.60;;;;;;;10.51;59.01;97122.79;113686;1199;2095264;-87
2021/10/16 10:34:55;;;;;;;;;;;;;;;10.43;59.12;97118.34;115485;1199;31482;-88
2021/10/16 10:37:30;;;;;;;7.10;3.60;;;;;;;10.42;59.13;97118.39;115493;1195;26009;-87
2021/10/16 10:40:00;;;;;;;6.20;4.10;;;;;;;10.36;58.09;97117.95;115556;1199;44530;-86
2021/10/16 10:42:53;;;;;;;6.80;4.10;;;;;;;10.25;57.86;97115.02;115458;1199;37406;-85
2021/10/16 10:45:31;;;;;;;9.50;4.50;;;;;;;10.23;58.48;97115.27;115535;1199;27974;-85
2021/10/16 10:48:13;;;;;;;9.50;4.50;;;;;;;10.31;58.20;97119.06;115592;1199;29204;-85
2021/10/16 10:50:47;;;;;;;6.80;4.50;;;;;;;10.50;58.83;97109.27;115313;1199;34213;-86
2021/10/16 10:53:34;;;;;;;9.20;5.00;;;;;;;10.63;58.35;97112.34;115520;1199;29301;-86
2021/10/16 10:56:06;;;;;;;8.90;4.50;;;;;;;10.94;58.76;97109.39;115370;1193;30097;-86
2021/10/16 10:58:59;;;;;;;6.50;3.90;;;;;;;11.22;58.52;97108.11;115407;1199;32570;-86
2021/10/16 11:02:04;;;;;;;9.10;5.40;;;;;;;11.24;58.45;97105.77;115415;1199;27585;-85
2021/10/16 11:04:43;;;;;;;8.40;4.80;;;;;;;11.12;58.84;97106.92;115489;1199;26901;-86
2021/10/16 11:07:14;;;;;;;6.50;4.30;;;;;;;10.99;58.08;97108.96;115453;1199;28847;-86
2021/10/16 11:09:46;;;;;;;9.00;5.00;;;;;;;10.88;58.33;97109.73;115466;1199;27357;-86
2021/10/16 11:12:15;;;;;;;8.80;4.60;;;;;;;10.91;58.48;97106.48;115391;1199;29878;-85
2021/10/16 11:14:44;;;;;;;10.20;4.60;;;;;;;10.94;58.44;97102.76;115232;1199;26109;-86
2021/10/16 11:17:14;;;;;;;8.90;4.90;;;;;;;10.93;58.01;97104.73;115382;1193;27320;-83
2021/10/16 11:19:54;;;;;;;8.10;4.10;;;;;;;10.93;58.74;97101.16;115403;1192;28487;-86
2021/10/16 11:22:24;;;;;;;10.20;4.40;;;;;;;10.98;57.88;97099.09;115500;1199;30733;-86
2021/10/16 11:24:59;;;;;;;;;;;;;;;10.92;57.12;97099.58;115442;1192;27510;-85
2021/10/16 11:27:28;;;;;;;5.90;4.10;;;;;;;11.07;57.92;97093.45;115390;1192;28579;-85
2021/10/16 11:29:56;;;;;;;7.20;4.70;;;;;;;11.17;57.74;97092.52;115394;1199;30130;-86
2021/10/16 11:32:31;;;;;;;7.60;5.00;;;;;;;11.17;57.73;97092.27;115696;1198;41786;-84
2021/10/16 11:35:02;;;;;;;10.00;4.90;;;;;;;11.19;57.85;97093.20;115497;1199;33011;-85
2021/10/16 11:37:35;;;;;;;9.00;5.00;;;;;;;11.14;57.24;97090.46;115506;1199;35284;-85
2021/10/16 11:40:08;;;;;;;8.90;4.60;;;;;;;11.07;57.56;97092.39;115505;1193;40843;-86
2021/10/16 11:42:38;;;;;;;8.60;5.50;;;;;;;10.95;57.16;97093.00;115574;1198;33669;-86